createdAt,value
2022-08-11T00:02:35.448Z,98769.88
2022-08-11T00:05:54.436Z,98769.66
2022-08-11T00:09:02.049Z,98770.69
2022-08-11T00:12:17.590Z,98766.38
2022-08-11T00:15:26.154Z,98765.31
2022-08-11T00:18:41.555Z,98761.38
2022-08-11T00:22:04.752Z,98761.78
2022-08-11T00:25:15.744Z,98753.50
2022-08-11T00:28:31.094Z,98765.91
2022-08-11T00:31:40.916Z,98760.50
2022-08-11T00:34:50.863Z,98759.09
2022-08-11T00:38:02.944Z,98756.81
2022-08-11T00:41:26.906Z,98758.72
2022-08-11T00:44:50.961Z,98758.50
2022-08-11T00:48:10.118Z,98749.84
2022-08-11T00:52:04.760Z,98761.84
2022-08-11T00:55:56.612Z,98756.47
2022-08-11T00:59:44.149Z,98764.34
2022-08-11T01:03:22.596Z,98756.25
2022-08-11T01:06:56.104Z,98756.22
2022-08-11T01:10:47.426Z,98758.69
2022-08-11T01:14:53.335Z,98763.00
2022-08-11T01:18:52.184Z,98755.38
2022-08-11T01:22:57.695Z,98758.44
2022-08-11T01:27:18.967Z,98756.78
2022-08-11T01:31:41.114Z,98756.56
2022-08-11T01:35:39.619Z,98746.84
2022-08-11T01:39:25.551Z,98749.53
2022-08-11T01:43:32.761Z,98743.59
2022-08-11T01:46:55.386Z,98742.75
2022-08-11T01:50:22.741Z,98744.16
2022-08-11T01:53:48.653Z,98733.00
2022-08-11T01:57:19.641Z,98738.16
2022-08-11T02:00:34.425Z,98735.28
2022-08-11T02:03:58.131Z,98739.63
2022-08-11T02:07:22.639Z,98728.91
2022-08-11T02:10:57.432Z,98733.41
2022-08-11T02:14:22.651Z,98743.56
2022-08-11T02:17:56.857Z,98725.38
2022-08-11T02:21:33.808Z,98730.78
2022-08-11T02:24:56.488Z,98728.31
2022-08-11T02:28:21.829Z,98730.41
2022-08-11T02:32:24.025Z,98727.31
2022-08-11T02:35:43.008Z,98728.97
2022-08-11T02:39:03.558Z,98731.00
2022-08-11T02:42:42.316Z,98734.56
2022-08-11T02:46:17.963Z,98736.00
2022-08-11T02:50:02.575Z,98727.94
2022-08-11T02:53:29.827Z,98732.47
2022-08-11T02:56:57.717Z,98732.47
2022-08-11T03:00:24.284Z,98740.75
2022-08-11T03:03:41.324Z,98731.41
2022-08-11T03:07:02.142Z,98728.28
2022-08-11T03:10:26.688Z,98734.06
2022-08-11T03:13:57.558Z,98731.59
2022-08-11T03:17:29.813Z,98725.72
2022-08-11T03:20:54.429Z,98739.34
2022-08-11T03:24:11.767Z,98737.03
2022-08-11T03:27:42.368Z,98736.56
2022-08-11T03:31:00.291Z,98734.84
2022-08-11T03:34:16.761Z,98742.41
2022-08-11T03:37:54.743Z,98738.22
2022-08-11T03:42:03.144Z,98739.44
2022-08-11T03:45:26.778Z,98739.41
2022-08-11T03:48:52.242Z,98743.75
2022-08-11T03:52:19.676Z,98745.59
2022-08-11T03:56:25.638Z,98741.88
2022-08-11T04:00:21.796Z,98736.50
2022-08-11T04:04:21.688Z,98748.47
2022-08-11T04:08:21.090Z,98742.09
2022-08-11T04:12:34.748Z,98739.84
2022-08-11T04:16:32.319Z,98734.22
2022-08-11T04:20:26.911Z,98745.50
2022-08-11T04:24:35.280Z,98735.69
2022-08-11T04:28:31.346Z,98734.56
2022-08-11T04:31:54.928Z,98734.69
2022-08-11T04:35:27.853Z,98728.94
2022-08-11T04:39:20.522Z,98735.28
2022-08-11T04:43:25.453Z,98728.91
2022-08-11T04:47:00.099Z,98738.53
2022-08-11T04:50:42.465Z,98735.81
2022-08-11T04:54:47.192Z,98733.25
2022-08-11T04:58:31.354Z,98730.38
2022-08-11T05:02:16.898Z,98743.91
2022-08-11T05:05:56.241Z,98741.78
2022-08-11T05:09:41.288Z,98732.69
2022-08-11T05:12:56.599Z,98740.88
2022-08-11T05:16:29.401Z,98741.06
2022-08-11T05:19:47.752Z,98736.75
2022-08-11T05:23:23.519Z,98732.53
2022-08-11T05:27:00.177Z,98737.75
2022-08-11T05:30:22.090Z,98734.78
2022-08-11T05:33:51.691Z,98744.22
2022-08-11T05:37:25.605Z,98739.44
2022-08-11T05:40:51.190Z,98730.63
2022-08-11T05:44:19.666Z,98741.91
2022-08-11T05:47:46.938Z,98742.84
2022-08-11T05:51:16.622Z,98738.38
2022-08-11T05:54:36.807Z,98743.03
2022-08-11T05:57:51.683Z,98747.34
2022-08-11T06:01:12.274Z,98745.56
2022-08-11T06:04:26.335Z,98744.91
2022-08-11T06:07:47.216Z,98745.28
2022-08-11T06:10:56.380Z,98754.31
2022-08-11T06:14:08.066Z,98750.22
2022-08-11T06:17:17.405Z,98756.50
2022-08-11T06:20:32.919Z,98760.03
2022-08-11T06:23:49.339Z,98761.38
2022-08-11T06:27:14.061Z,98762.66
2022-08-11T06:30:23.698Z,98762.78
2022-08-11T06:33:50.668Z,98762.50
2022-08-11T06:37:21.901Z,98768.72
2022-08-11T06:40:44.888Z,98769.97
2022-08-11T06:44:05.120Z,98767.50
2022-08-11T06:47:15.014Z,98767.16
2022-08-11T06:50:39.154Z,98769.59
2022-08-11T06:54:03.333Z,98768.22
2022-08-11T06:57:31.027Z,98775.22
2022-08-11T07:00:39.709Z,98774.28
2022-08-11T07:03:51.516Z,98768.25
2022-08-11T07:08:34.734Z,98776.44
2022-08-11T07:12:30.056Z,98752.53
2022-08-11T07:16:10.668Z,98762.41
2022-08-11T07:19:29.849Z,98759.22
2022-08-11T07:22:54.905Z,98760.59
2022-08-11T07:26:18.713Z,98768.16
2022-08-11T07:29:27.072Z,98768.53
2022-08-11T07:32:40.284Z,98758.41
2022-08-11T07:35:53.536Z,98765.25
2022-08-11T07:39:03.956Z,98767.69
2022-08-11T07:42:16.406Z,98769.06
2022-08-11T07:45:41.795Z,98773.16
2022-08-11T07:49:00.299Z,98768.50
2022-08-11T07:52:19.670Z,98770.28
2022-08-11T07:55:50.280Z,98769.56
2022-08-11T07:59:10.852Z,98763.88
2022-08-11T08:02:32.472Z,98766.94
2022-08-11T08:05:52.664Z,98766.72
2022-08-11T08:09:14.023Z,98771.41
2022-08-11T08:12:39.165Z,98763.03
2022-08-11T08:16:01.039Z,98766.63
2022-08-11T08:19:07.348Z,98762.84
2022-08-11T08:22:38.168Z,98753.41
2022-08-11T08:25:46.216Z,98750.03
2022-08-11T08:28:55.355Z,98758.41
2022-08-11T08:31:59.427Z,98755.97
2022-08-11T08:35:09.302Z,98751.03
2022-08-11T08:38:17.007Z,98753.13
2022-08-11T08:41:31.416Z,98750.09
2022-08-11T08:44:48.130Z,98745.78
2022-08-11T08:48:03.434Z,98744.44
2022-08-11T08:51:33.614Z,98749.78
2022-08-11T08:55:01.391Z,98746.53
2022-08-11T08:58:07.756Z,98739.38
2022-08-11T09:01:22.591Z,98740.00
2022-08-11T09:04:31.497Z,98737.19
2022-08-11T09:07:41.114Z,98738.84
2022-08-11T09:11:13.915Z,98739.56
2022-08-11T09:14:21.096Z,98743.16
2022-08-11T09:17:32.056Z,98732.72
2022-08-11T09:20:41.641Z,98734.44
2022-08-11T09:24:11.447Z,98736.00
2022-08-11T09:27:24.967Z,98732.91
2022-08-11T09:30:32.664Z,98729.16
2022-08-11T09:33:47.219Z,98726.97
2022-08-11T09:37:09.930Z,98727.56
2022-08-11T09:40:33.926Z,98725.19
2022-08-11T09:44:04.015Z,98713.59
2022-08-11T09:47:15.710Z,98712.63
2022-08-11T09:50:26.850Z,98710.22
2022-08-11T09:53:40.869Z,98714.97
2022-08-11T09:57:08.062Z,98713.75
2022-08-11T10:00:18.709Z,98714.81
2022-08-11T10:03:28.511Z,98714.44
2022-08-11T10:06:55.499Z,98709.88
2022-08-11T10:10:06.773Z,98705.84
2022-08-11T10:14:30.248Z,98705.03
2022-08-11T10:16:44.157Z,98705.09
2022-08-11T10:20:04.756Z,98700.47
2022-08-11T10:23:29.649Z,98691.84
2022-08-11T10:26:49.611Z,98690.81
2022-08-11T10:30:09.109Z,98687.34
2022-08-11T10:33:37.590Z,98683.34
2022-08-11T10:36:48.793Z,98687.59
2022-08-11T10:39:59.843Z,98674.50
2022-08-11T10:43:07.324Z,98681.16
2022-08-11T10:46:29.897Z,98673.38
2022-08-11T10:49:37.188Z,98673.50
2022-08-11T10:52:57.373Z,98669.09
2022-08-11T10:56:20.418Z,98665.81
2022-08-11T10:59:31.080Z,98663.97
2022-08-11T11:02:38.707Z,98664.78
2022-08-11T11:06:12.726Z,98651.84
2022-08-11T11:09:22.414Z,98652.38
2022-08-11T11:12:53.905Z,98647.25
2022-08-11T11:16:12.378Z,98646.25
2022-08-11T11:19:26.475Z,98636.69
2022-08-11T11:22:41.666Z,98631.16
2022-08-11T11:26:27.061Z,98630.69
2022-08-11T11:30:02.958Z,98619.38
2022-08-11T11:33:23.382Z,98627.91
2022-08-11T11:36:47.943Z,98626.16
2022-08-11T11:39:57.727Z,98616.47
2022-08-11T11:43:05.399Z,98610.34
2022-08-11T11:46:14.170Z,98617.56
2022-08-11T11:49:25.403Z,98606.19
2022-08-11T11:52:32.727Z,98597.75
2022-08-11T11:55:40.337Z,98602.09
2022-08-11T11:58:59.951Z,98585.97
2022-08-11T12:02:11.939Z,98590.50
2022-08-11T12:05:18.817Z,98581.69
2022-08-11T12:08:28.653Z,98569.28
2022-08-11T12:11:50.756Z,98573.94
2022-08-11T12:14:58.698Z,98578.59
2022-08-11T12:18:08.974Z,98568.16
2022-08-11T12:21:19.019Z,98569.38
2022-08-11T12:24:38.596Z,98574.09
2022-08-11T12:27:45.075Z,98578.56
2022-08-11T12:30:54.220Z,98568.25
2022-08-11T12:34:09.016Z,98567.06
2022-08-11T12:37:19.461Z,98568.13
2022-08-11T12:41:12.121Z,98562.72
2022-08-11T12:44:26.450Z,98551.03
2022-08-11T12:48:13.986Z,98545.59
2022-08-11T12:52:12.417Z,98542.03
2022-08-11T12:55:41.034Z,98548.53
2022-08-11T12:58:52.091Z,98545.66
2022-08-11T13:02:11.142Z,98540.06
2022-08-11T13:05:19.591Z,98535.16
2022-08-11T13:08:32.368Z,98533.72
2022-08-11T13:11:56.065Z,98528.34
2022-08-11T13:15:06.065Z,98520.75
2022-08-11T13:18:13.898Z,98513.06
2022-08-11T13:21:21.660Z,98518.50
2022-08-11T13:24:34.262Z,98516.31
2022-08-11T13:27:40.387Z,98509.25
2022-08-11T13:30:59.397Z,98511.28
2022-08-11T13:34:09.085Z,98506.44
2022-08-11T13:37:19.517Z,98496.09
2022-08-11T13:40:56.020Z,98490.16
2022-08-11T13:44:03.835Z,98496.28
2022-08-11T13:47:16.198Z,98495.84
2022-08-11T13:50:22.298Z,98494.38
2022-08-11T13:53:32.885Z,98501.03
2022-08-11T13:56:46.998Z,98490.69
2022-08-11T14:00:13.194Z,98486.31
2022-08-11T14:04:30.270Z,98493.75
2022-08-11T14:07:01.632Z,98489.63
2022-08-11T14:10:12.894Z,98496.09
2022-08-11T14:13:42.730Z,98554.63
2022-08-11T14:17:00.487Z,98552.22
2022-08-11T14:20:35.497Z,98582.06
2022-08-11T14:23:45.182Z,98575.56
2022-08-11T14:26:59.045Z,98581.44
2022-08-11T14:30:30.003Z,98579.56
2022-08-11T14:34:00.446Z,98593.34
2022-08-11T14:37:11.307Z,98620.66
2022-08-11T14:40:48.016Z,98631.44
2022-08-11T14:44:14.868Z,98639.91
2022-08-11T14:47:26.402Z,98636.25
2022-08-11T14:50:36.737Z,98632.81
2022-08-11T14:53:58.564Z,98647.91
2022-08-11T14:57:03.550Z,98649.25
2022-08-11T15:00:16.517Z,98649.25
2022-08-11T15:03:28.717Z,98643.69
2022-08-11T15:06:36.114Z,98638.28
2022-08-11T15:13:11.294Z,98620.34
2022-08-11T15:16:29.337Z,98614.31
2022-08-11T15:20:02.241Z,98608.66
2022-08-11T15:23:33.981Z,98602.72
2022-08-11T15:26:57.410Z,98590.78
2022-08-11T15:30:35.921Z,98587.41
2022-08-11T15:34:04.880Z,98604.69
2022-08-11T15:37:34.047Z,98618.28
2022-08-11T15:40:57.455Z,98604.00
2022-08-11T15:44:58.779Z,98610.56
2022-08-11T15:48:06.266Z,98611.84
2022-08-11T15:51:29.653Z,98604.78
2022-08-11T15:54:46.591Z,98603.53
2022-08-11T15:58:15.643Z,98598.25
2022-08-11T16:01:46.118Z,98592.13
2022-08-11T16:04:54.656Z,98595.56
2022-08-11T16:08:02.789Z,98598.34
2022-08-11T16:11:28.373Z,98587.78
2022-08-11T16:15:00.157Z,98577.34
2022-08-11T16:18:24.480Z,98583.88
2022-08-11T16:21:43.174Z,98572.31
2022-08-11T16:27:02.078Z,98572.31
2022-08-11T16:28:41.492Z,98580.16
2022-08-11T16:32:10.560Z,98579.59
2022-08-11T16:35:35.111Z,98584.44
2022-08-11T16:38:44.272Z,98581.50
2022-08-11T16:42:05.411Z,98583.09
2022-08-11T16:45:26.848Z,98587.91
2022-08-11T16:48:39.563Z,98579.59
2022-08-11T16:51:45.939Z,98581.22
2022-08-11T16:54:52.694Z,98576.03
2022-08-11T16:58:12.660Z,98582.72
2022-08-11T17:01:25.844Z,98575.81
2022-08-11T17:04:53.932Z,98573.41
2022-08-11T17:08:25.023Z,98562.53
2022-08-11T17:11:56.516Z,98562.34
2022-08-11T17:15:29.319Z,98553.75
2022-08-11T17:18:48.698Z,98556.00
2022-08-11T17:22:09.548Z,98563.06
2022-08-11T17:25:25.156Z,98561.84
2022-08-11T17:28:34.673Z,98556.78
2022-08-11T17:31:53.149Z,98559.56
2022-08-11T17:35:31.691Z,98555.88
2022-08-11T17:38:43.077Z,98550.78
2022-08-11T17:42:02.167Z,98559.31
2022-08-11T17:45:24.354Z,98563.81
2022-08-11T17:48:35.072Z,98558.81
2022-08-11T17:52:01.112Z,98558.50
2022-08-11T17:55:52.452Z,98558.97
2022-08-11T17:59:14.606Z,98551.53
2022-08-11T18:02:44.690Z,98551.38
2022-08-11T18:05:52.352Z,98550.09
2022-08-11T18:09:16.633Z,98546.28
2022-08-11T18:12:34.795Z,98539.09
2022-08-11T18:15:56.617Z,98540.22
2022-08-11T18:19:15.792Z,98549.13
2022-08-11T18:22:48.696Z,98548.06
2022-08-11T18:26:20.985Z,98545.09
2022-08-11T18:29:44.458Z,98552.81
2022-08-11T18:33:45.236Z,98555.16
2022-08-11T18:36:55.905Z,98563.13
2022-08-11T18:40:29.873Z,98556.75
2022-08-11T18:44:05.111Z,98559.97
2022-08-11T18:47:34.130Z,98561.81
2022-08-11T18:51:31.466Z,98567.63
2022-08-11T18:55:06.234Z,98575.28
2022-08-11T18:58:40.367Z,98583.78
2022-08-11T19:02:03.893Z,98580.72
2022-08-11T19:06:06.154Z,98588.00
2022-08-11T19:09:18.777Z,98589.72
2022-08-11T19:12:46.219Z,98586.22
2022-08-11T19:16:06.102Z,98584.41
2022-08-11T19:19:31.214Z,98583.03
2022-08-11T19:22:55.009Z,98581.16
2022-08-11T19:26:17.103Z,98584.88
2022-08-11T19:30:07.385Z,98583.66
2022-08-11T19:34:00.266Z,98584.91
2022-08-11T19:37:23.551Z,98582.28
2022-08-11T19:41:18.454Z,98578.81
2022-08-11T19:44:59.676Z,98581.38
2022-08-11T19:48:32.149Z,98586.78
2022-08-11T19:51:54.500Z,98579.09
2022-08-11T19:55:33.040Z,98580.19
2022-08-11T19:58:54.900Z,98576.06
2022-08-11T20:02:14.709Z,98569.66
2022-08-11T20:05:39.822Z,98566.75
2022-08-11T20:09:17.632Z,98574.81
2022-08-11T20:12:44.202Z,98577.09
2022-08-11T20:16:03.791Z,98576.47
2022-08-11T20:19:56.644Z,98569.66
2022-08-11T20:23:23.759Z,98565.72
2022-08-11T20:26:48.341Z,98574.22
2022-08-11T20:30:19.818Z,98575.88
2022-08-11T20:33:43.370Z,98560.16
2022-08-11T20:37:07.298Z,98555.63
2022-08-11T20:40:29.223Z,98564.94
2022-08-11T20:44:07.573Z,98577.28
2022-08-11T20:47:32.696Z,98556.84
2022-08-11T20:51:23.058Z,98570.69
2022-08-11T20:54:51.800Z,98561.38
2022-08-11T20:58:47.948Z,98563.25
2022-08-11T21:02:09.631Z,98563.84
2022-08-11T21:06:08.934Z,98572.94
2022-08-11T21:09:23.840Z,98568.41
2022-08-11T21:12:50.810Z,98564.88
2022-08-11T21:16:25.201Z,98565.91
2022-08-11T21:20:00.033Z,98573.34
2022-08-11T21:23:30.892Z,98570.84
2022-08-11T21:27:01.540Z,98570.16
2022-08-11T21:30:24.011Z,98573.69
2022-08-11T21:33:47.249Z,98573.53
2022-08-11T21:37:08.403Z,98572.22
2022-08-11T21:40:34.460Z,98582.13
2022-08-11T21:43:57.765Z,98572.41
2022-08-11T21:47:42.419Z,98575.94
2022-08-11T21:50:57.813Z,98586.25
2022-08-11T21:54:17.766Z,98577.56
2022-08-11T21:57:48.029Z,98582.47
2022-08-11T22:01:09.973Z,98580.59
2022-08-11T22:04:29.987Z,98573.97
2022-08-11T22:07:48.800Z,98579.16
2022-08-11T22:11:07.476Z,98574.38
2022-08-11T22:14:28.945Z,98573.31
2022-08-11T22:17:46.990Z,98571.44
2022-08-11T22:21:07.574Z,98583.81
2022-08-11T22:24:30.257Z,98594.31
2022-08-11T22:27:49.379Z,98588.13
2022-08-11T22:31:13.536Z,98591.22
2022-08-11T22:34:34.084Z,98592.44
2022-08-11T22:38:01.778Z,98589.34
2022-08-11T22:41:20.119Z,98583.97
2022-08-11T22:44:38.206Z,98588.69
2022-08-11T22:48:02.956Z,98582.69
2022-08-11T22:51:22.136Z,98585.38
2022-08-11T22:54:41.993Z,98584.34
2022-08-11T22:58:02.981Z,98580.41
2022-08-11T23:01:22.118Z,98580.59
2022-08-11T23:04:45.637Z,98583.09
2022-08-11T23:08:13.796Z,98581.88
2022-08-11T23:12:02.469Z,98579.75
2022-08-11T23:15:12.675Z,98572.69
2022-08-11T23:18:32.279Z,98566.28
2022-08-11T23:21:57.609Z,98563.19
2022-08-11T23:25:17.873Z,98562.94
2022-08-11T23:28:39.584Z,98552.66
2022-08-11T23:31:59.524Z,98548.72
2022-08-11T23:35:39.186Z,98558.34
2022-08-11T23:39:01.550Z,98562.00
2022-08-11T23:42:24.948Z,98555.19
2022-08-11T23:45:43.204Z,98558.75
2022-08-11T23:49:14.880Z,98565.06
2022-08-11T23:52:52.459Z,98562.13
2022-08-11T23:56:13.753Z,98559.34
2022-08-11T23:59:39.865Z,98559.34
